Time;durP1;ratioP1;P1;durP2;ratioP2;P2;SDS_P1;SDS_P2;PMS_P1;PMS_P2;Temp;Humidity;BMP_temperature;BMP_pressure;BME280_temperature;BME280_humidity;BME280_pressure;Samples;Min_cycle;Max_cycle;Signal;HPM_P1;HPM_P2
2022/02/22 00:00:17;;;;;;;13.85;4.00;;;;;;;;;;5115879;28;20190;-66
2022/02/22 00:02:44;;;;;;;17.13;4.38;;;;;;;;;;5115201;28;20724;-66
2022/02/22 00:05:12;;;;;;;36.38;6.20;;;;;;;;;;5115592;28;20282;-66
2022/02/22 00:07:40;;;;;;;30.17;5.75;;;;;;;;;;5115863;28;20203;-66
2022/02/22 00:10:08;;;;;;;27.45;5.85;;;;;;;;;;5115531;28;20197;-66
2022/02/22 00:12:36;;;;;;;24.50;4.93;;;;;;;;;;5115136;28;20230;-65
2022/02/22 00:15:03;;;;;;;27.52;4.88;;;;;;;;;;5115898;28;20196;-65
2022/02/22 00:17:33;;;;;;;15.00;3.90;;;;;;;;;;5115358;28;20221;-65
2022/02/22 00:20:01;;;;;;;11.25;2.72;;;;;;;;;;5114994;28;20197;-65
2022/02/22 00:22:28;;;;;;;20.30;4.85;;;;;;;;;;5115225;28;20197;-64
2022/02/22 00:24:55;;;;;;;22.40;5.75;;;;;;;;;;5115156;28;20285;-65
2022/02/22 00:27:22;;;;;;;24.80;4.35;;;;;;;;;;5115724;28;20641;-64
2022/02/22 00:29:50;;;;;;;17.48;4.53;;;;;;;;;;5114809;28;20278;-65
2022/02/22 00:32:17;;;;;;;26.63;5.35;;;;;;;;;;5115349;28;20236;-65
2022/02/22 00:34:46;;;;;;;14.98;3.90;;;;;;;;;;5114994;28;20282;-64
2022/02/22 00:37:13;;;;;;;26.00;5.32;;;;;;;;;;5114602;28;20221;-65
2022/02/22 00:39:40;;;;;;;15.13;4.75;;;;;;;;;;5114869;28;20284;-64
2022/02/22 00:42:07;;;;;;;27.73;5.18;;;;;;;;;;5114916;28;20226;-64
2022/02/22 00:44:35;;;;;;;19.98;5.57;;;;;;;;;;5114891;28;20200;-66
2022/02/22 00:47:02;;;;;;;14.18;4.57;;;;;;;;;;5114414;28;20604;-65
2022/02/22 00:49:29;;;;;;;14.07;4.60;;;;;;;;;;5114966;28;20201;-65
2022/02/22 00:51:58;;;;;;;14.00;4.03;;;;;;;;;;5115337;28;20641;-64
2022/02/22 00:54:25;;;;;;;23.60;5.57;;;;;;;;;;5114313;28;20290;-64
2022/02/22 00:56:52;;;;;;;25.52;5.95;;;;;;;;;;5114096;28;20677;-64
2022/02/22 00:59:19;;;;;;;26.77;5.00;;;;;;;;;;5114563;28;20198;-64
2022/02/22 01:01:47;;;;;;;18.42;4.05;;;;;;;;;;5114768;28;20275;-64
2022/02/22 01:04:14;;;;;;;23.35;4.72;;;;;;;;;;5114173;28;20196;-66
2022/02/22 01:06:41;;;;;;;20.33;5.00;;;;;;;;;;5114648;28;20552;-65
2022/02/22 01:09:09;;;;;;;24.90;5.55;;;;;;;;;;5114885;28;20196;-64
2022/02/22 01:11:37;;;;;;;22.88;4.75;;;;;;;;;;5114105;28;20206;-64
2022/02/22 01:14:04;;;;;;;19.58;6.10;;;;;;;;;;5113853;28;20191;-65
2022/02/22 01:16:32;;;;;;;32.42;5.85;;;;;;;;;;5113969;28;20225;-65
2022/02/22 01:18:59;;;;;;;25.67;6.25;;;;;;;;;;5114820;28;20190;-65
2022/02/22 01:21:26;;;;;;;28.35;8.15;;;;;;;;;;5113967;28;20201;-65
2022/02/22 01:23:53;;;;;;;26.08;6.75;;;;;;;;;;5113912;28;20777;-65
2022/02/22 01:26:24;;;;;;;37.47;5.68;;;;;;;;;;5114013;28;20261;-65
2022/02/22 01:28:51;;;;;;;40.58;7.68;;;;;;;;;;5114616;28;20183;-64
2022/02/22 01:31:18;;;;;;;23.42;5.32;;;;;;;;;;5113880;28;20203;-65
2022/02/22 01:33:45;;;;;;;24.17;6.35;;;;;;;;;;5114143;28;20285;-65
2022/02/22 01:36:13;;;;;;;35.53;7.35;;;;;;;;;;5113743;28;20194;-65
2022/02/22 01:38:40;;;;;;;24.75;5.80;;;;;;;;;;5114009;28;20226;-64
2022/02/22 01:41:07;;;;;;;20.08;4.85;;;;;;;;;;5114058;28;20616;-65
2022/02/22 01:43:40;;;;;;;21.58;5.68;;;;;;;;;;5113984;28;20196;-65
2022/02/22 01:46:07;;;;;;;22.83;6.30;;;;;;;;;;5113688;28;20178;-65
2022/02/22 01:48:34;;;;;;;27.08;4.82;;;;;;;;;;5113957;28;20225;-64
2022/02/22 01:51:01;;;;;;;29.58;6.03;;;;;;;;;;5113897;28;20195;-65
2022/02/22 01:53:29;;;;;;;16.95;4.50;;;;;;;;;;5113885;28;20191;-65
2022/02/22 01:55:56;;;;;;;15.60;5.40;;;;;;;;;;5113846;28;20648;-64
2022/02/22 01:58:23;;;;;;;24.63;6.65;;;;;;;;;;5113801;28;20251;-64
2022/02/22 02:00:52;;;;;;;28.90;5.57;;;;;;;;;;5114227;28;20278;-65
2022/02/22 02:03:19;;;;;;;22.00;4.90;;;;;;;;;;5113507;28;20236;-65
2022/02/22 02:05:47;;;;;;;27.45;6.90;;;;;;;;;;5113819;28;20234;-65
2022/02/22 02:08:14;;;;;;;25.45;5.57;;;;;;;;;;5113728;28;20233;-65
2022/02/22 02:10:42;;;;;;;12.90;3.80;;;;;;;;;;5113749;28;20190;-65
2022/02/22 02:13:09;;;;;;;19.50;4.60;;;;;;;;;;5113708;28;20643;-64
2022/02/22 02:15:36;;;;;;;14.95;4.15;;;;;;;;;;5113423;28;20199;-65
2022/02/22 02:18:06;;;;;;;18.30;5.47;;;;;;;;;;5114335;28;20214;-65
2022/02/22 02:20:33;;;;;;;11.52;4.05;;;;;;;;;;5113685;28;20193;-65
2022/02/22 02:23:02;;;;;;;21.30;4.80;;;;;;;;;;5113307;28;20196;-64
2022/02/22 02:25:29;;;;;;;22.05;4.93;;;;;;;;;;5114504;28;20216;-64
2022/02/22 02:27:56;;;;;;;23.23;6.25;;;;;;;;;;5117497;28;20210;-65
2022/02/22 02:30:24;;;;;;;39.47;6.25;;;;;;;;;;5117790;28;20230;-65
2022/02/22 02:32:51;;;;;;;19.02;5.20;;;;;;;;;;5117088;28;20199;-66
2022/02/22 02:35:18;;;;;;;28.88;6.25;;;;;;;;;;5117374;28;20277;-66
2022/02/22 02:37:45;;;;;;;12.88;3.75;;;;;;;;;;5117265;28;20220;-66
2022/02/22 02:40:14;;;;;;;17.73;3.78;;;;;;;;;;5116960;28;20198;-66
2022/02/22 02:42:42;;;;;;;13.02;3.70;;;;;;;;;;5116928;28;20646;-66
2022/02/22 02:45:10;;;;;;;16.90;4.85;;;;;;;;;;5117205;28;20194;-65
2022/02/22 02:47:37;;;;;;;20.60;4.88;;;;;;;;;;5117298;28;20199;-67
2022/02/22 02:50:06;;;;;;;16.83;3.45;;;;;;;;;;5117105;28;20226;-67
2022/02/22 02:52:33;;;;;;;23.90;4.45;;;;;;;;;;5117019;28;20196;-67
2022/02/22 02:55:00;;;;;;;24.02;4.65;;;;;;;;;;5116933;28;20195;-67
2022/02/22 02:57:30;;;;;;;21.95;4.80;;;;;;;;;;5116925;28;20690;-66
2022/02/22 02:59:58;;;;;;;15.02;4.50;;;;;;;;;;5117039;28;20187;-66
2022/02/22 03:02:25;;;;;;;20.65;4.20;;;;;;;;;;5116903;28;20250;-66
2022/02/22 03:04:58;;;;;;;27.23;4.95;;;;;;;;;;5117083;28;20224;-66
2022/02/22 03:07:26;;;;;;;19.00;4.45;;;;;;;;;;5116966;28;20243;-67
2022/02/22 03:09:53;;;;;;;12.85;4.05;;;;;;;;;;5117082;28;20240;-66
2022/02/22 03:12:20;;;;;;;14.23;3.53;;;;;;;;;;5116697;28;20192;-66
2022/02/22 03:14:49;;;;;;;17.25;3.58;;;;;;;;;;5116991;28;20338;-67
2022/02/22 03:17:16;;;;;;;15.13;3.78;;;;;;;;;;5116496;28;20261;-68
2022/02/22 03:19:43;;;;;;;9.43;2.88;;;;;;;;;;5117088;28;20200;-67
2022/02/22 03:22:11;;;;;;;15.65;3.70;;;;;;;;;;5116516;28;20193;-67
2022/02/22 03:24:40;;;;;;;19.13;4.30;;;;;;;;;;5116138;28;20203;-67
2022/02/22 03:27:07;;;;;;;18.00;4.13;;;;;;;;;;5116223;28;20227;-68
2022/02/22 03:29:34;;;;;;;21.90;4.95;;;;;;;;;;5116012;28;20694;-68
2022/02/22 03:32:03;;;;;;;16.40;5.30;;;;;;;;;;5115994;28;20229;-67
2022/02/22 03:34:30;;;;;;;17.75;4.25;;;;;;;;;;5116316;28;20235;-67
2022/02/22 03:36:58;;;;;;;13.82;4.97;;;;;;;;;;5115413;28;20189;-67
2022/02/22 03:39:25;;;;;;;24.05;4.28;;;;;;;;;;5116277;28;20308;-67
2022/02/22 03:41:52;;;;;;;32.38;4.38;;;;;;;;;;5116586;28;20224;-66
2022/02/22 03:44:19;;;;;;;29.15;5.32;;;;;;;;;;5116153;28;20645;-67
2022/02/22 03:46:49;;;;;;;24.50;5.38;;;;;;;;;;5116020;28;20221;-67
2022/02/22 03:49:18;;;;;;;22.98;5.10;;;;;;;;;;5116854;28;20191;-68
2022/02/22 03:51:45;;;;;;;23.88;5.32;;;;;;;;;;5115920;28;20201;-67
2022/02/22 03:54:13;;;;;;;21.85;5.68;;;;;;;;;;5116383;28;20197;-68
2022/02/22 03:56:40;;;;;;;15.57;4.35;;;;;;;;;;5115908;28;20247;-67
2022/02/22 03:59:07;;;;;;;25.90;5.00;;;;;;;;;;5115620;28;20310;-67
2022/02/22 04:01:34;;;;;;;27.00;4.75;;;;;;;;;;5115418;28;20240;-67
2022/02/22 04:04:02;;;;;;;28.63;5.75;;;;;;;;;;5115640;28;20224;-66
2022/02/22 04:06:30;;;;;;;28.33;5.65;;;;;;;;;;5115651;28;20193;-66
2022/02/22 04:08:58;;;;;;;27.38;5.03;;;;;;;;;;5115528;28;20289;-67
2022/02/22 04:11:25;;;;;;;21.30;4.88;;;;;;;;;;5115655;28;20288;-67
2022/02/22 04:13:52;;;;;;;28.77;6.35;;;;;;;;;;5115715;28;20197;-67
2022/02/22 04:16:19;;;;;;;36.20;5.55;;;;;;;;;;5115375;28;20288;-67
2022/02/22 04:18:47;;;;;;;25.88;6.05;;;;;;;;;;5115270;28;20240;-66
2022/02/22 04:21:14;;;;;;;28.13;7.05;;;;;;;;;;5115310;28;20275;-67
2022/02/22 04:23:42;;;;;;;36.55;5.45;;;;;;;;;;5114985;28;20198;-67
2022/02/22 04:26:10;;;;;;;18.08;4.05;;;;;;;;;;5115375;28;20276;-66
2022/02/22 04:28:37;;;;;;;26.33;5.00;;;;;;;;;;5115728;28;20205;-67
2022/02/22 04:31:04;;;;;;;36.78;8.05;;;;;;;;;;5115131;28;20195;-66
2022/02/22 04:33:31;;;;;;;25.45;5.68;;;;;;;;;;5114738;28;20292;-67
2022/02/22 04:35:59;;;;;;;15.43;5.18;;;;;;;;;;5114838;28;20237;-68
2022/02/22 04:38:26;;;;;;;18.45;4.57;;;;;;;;;;5115074;28;20313;-67
2022/02/22 04:40:54;;;;;;;26.05;5.88;;;;;;;;;;5114630;28;20235;-66
2022/02/22 04:43:22;;;;;;;24.75;5.50;;;;;;;;;;5114588;28;20286;-67
2022/02/22 04:45:49;;;;;;;19.10;4.70;;;;;;;;;;5114538;28;20241;-67
2022/02/22 04:48:16;;;;;;;19.20;6.07;;;;;;;;;;5113730;28;20816;-67
2022/02/22 04:50:43;;;;;;;22.23;5.15;;;;;;;;;;5114771;28;20232;-66
2022/02/22 04:53:10;;;;;;;17.90;4.85;;;;;;;;;;5114771;28;20197;-66
2022/02/22 04:55:38;;;;;;;30.90;4.75;;;;;;;;;;5114213;28;20285;-65
2022/02/22 04:58:06;;;;;;;27.60;5.95;;;;;;;;;;5115196;28;20309;-66
2022/02/22 05:00:33;;;;;;;23.75;4.78;;;;;;;;;;5114076;28;20284;-67
2022/02/22 05:03:01;;;;;;;26.20;5.55;;;;;;;;;;5114567;28;20233;-66
2022/02/22 05:05:28;;;;;;;22.27;5.25;;;;;;;;;;5114814;28;20298;-68
2022/02/22 05:07:55;;;;;;;30.25;5.00;;;;;;;;;;5114424;28;20197;-66
2022/02/22 05:10:22;;;;;;;21.83;4.72;;;;;;;;;;5114503;28;20190;-67
2022/02/22 05:12:50;;;;;;;16.98;4.60;;;;;;;;;;5114426;28;20613;-68
2022/02/22 05:15:18;;;;;;;31.00;6.15;;;;;;;;;;5114036;28;20239;-68
2022/02/22 05:17:45;;;;;;;18.63;3.60;;;;;;;;;;5113943;28;20213;-68
2022/02/22 05:20:13;;;;;;;24.25;5.03;;;;;;;;;;5114295;28;20197;-68
2022/02/22 05:22:41;;;;;;;21.02;5.50;;;;;;;;;;5114201;28;20195;-68
2022/02/22 05:25:09;;;;;;;11.65;5.22;;;;;;;;;;5114073;28;20201;-69
2022/02/22 05:27:36;;;;;;;27.23;6.03;;;;;;;;;;5113832;28;20629;-68
2022/02/22 05:30:03;;;;;;;23.30;5.10;;;;;;;;;;5113236;28;20207;-67
2022/02/22 05:32:32;;;;;;;22.38;6.05;;;;;;;;;;5112942;28;20197;-67
2022/02/22 05:35:00;;;;;;;33.72;7.68;;;;;;;;;;5113380;28;20559;-68
2022/02/22 05:37:27;;;;;;;22.65;5.45;;;;;;;;;;5112929;28;20197;-68
2022/02/22 05:39:55;;;;;;;25.25;4.47;;;;;;;;;;5113144;28;20586;-68
2022/02/22 05:42:23;;;;;;;30.35;6.10;;;;;;;;;;5112922;28;20211;-68
2022/02/22 05:44:50;;;;;;;24.95;4.45;;;;;;;;;;5113361;28;20219;-68
2022/02/22 05:47:17;;;;;;;25.75;5.00;;;;;;;;;;5113372;28;20195;-68
2022/02/22 05:49:47;;;;;;;22.35;5.38;;;;;;;;;;5113126;28;20202;-68
2022/02/22 05:52:14;;;;;;;25.20;5.75;;;;;;;;;;5113943;28;20636;-68
2022/02/22 05:54:42;;;;;;;19.10;5.68;;;;;;;;;;5113806;28;20230;-68
2022/02/22 05:57:10;;;;;;;17.83;4.60;;;;;;;;;;5114062;28;20198;-68
2022/02/22 05:59:37;;;;;;;25.55;5.50;;;;;;;;;;5114492;28;20300;-69
2022/02/22 06:02:04;;;;;;;19.42;6.85;;;;;;;;;;5117694;28;20198;-68
2022/02/22 06:04:32;;;;;;;24.73;5.05;;;;;;;;;;5118334;28;20295;-69
2022/02/22 06:07:00;;;;;;;22.33;4.40;;;;;;;;;;5117757;28;20193;-68
2022/02/22 06:09:27;;;;;;;37.08;6.85;;;;;;;;;;5117568;28;20198;-67
2022/02/22 06:11:55;;;;;;;17.70;5.18;;;;;;;;;;5117793;28;20295;-68
2022/02/22 06:14:22;;;;;;;19.50;5.20;;;;;;;;;;5117515;28;20209;-68
2022/02/22 06:16:53;;;;;;;25.38;5.40;;;;;;;;;;5117717;28;20221;-72
2022/02/22 06:19:20;;;;;;;30.13;5.50;;;;;;;;;;5118510;28;20206;-68
2022/02/22 06:21:48;;;;;;;24.08;6.20;;;;;;;;;;5118146;28;20203;-68
2022/02/22 06:24:16;;;;;;;32.55;5.88;;;;;;;;;;5117618;28;20204;-69
2022/02/22 06:26:43;;;;;;;24.60;6.43;;;;;;;;;;5117987;28;20658;-69
2022/02/22 06:29:11;;;;;;;29.77;6.03;;;;;;;;;;5117104;28;20228;-68
2022/02/22 06:31:38;;;;;;;12.48;4.00;;;;;;;;;;5117561;28;20197;-69
2022/02/22 06:34:05;;;;;;;16.52;5.75;;;;;;;;;;5117120;28;20280;-69
2022/02/22 06:36:33;;;;;;;25.95;4.90;;;;;;;;;;5117741;28;20284;-69
2022/02/22 06:39:00;;;;;;;24.23;5.57;;;;;;;;;;5117227;28;20313;-68
2022/02/22 06:41:29;;;;;;;23.83;5.00;;;;;;;;;;5117266;28;20279;-69
2022/02/22 06:43:56;;;;;;;17.00;6.57;;;;;;;;;;5116881;28;20197;-69
2022/02/22 06:46:24;;;;;;;21.58;6.07;;;;;;;;;;5117402;28;20282;-69
2022/02/22 06:48:51;;;;;;;17.00;4.57;;;;;;;;;;5116836;28;20292;-69
2022/02/22 06:51:18;;;;;;;18.92;4.47;;;;;;;;;;5117229;28;20626;-68
2022/02/22 06:53:45;;;;;;;16.05;5.15;;;;;;;;;;5117435;28;20209;-68
2022/02/22 06:56:13;;;;;;;25.08;5.90;;;;;;;;;;5116903;28;20210;-68
2022/02/22 06:58:41;;;;;;;22.23;6.10;;;;;;;;;;5116878;28;20209;-68
2022/02/22 07:01:09;;;;;;;29.50;5.25;;;;;;;;;;5116550;28;20224;-68
2022/02/22 07:03:36;;;;;;;26.88;5.13;;;;;;;;;;5116810;28;20279;-69
2022/02/22 07:06:03;;;;;;;18.58;5.95;;;;;;;;;;5116460;28;20739;-69
2022/02/22 07:08:32;;;;;;;24.75;6.63;;;;;;;;;;5116449;28;20197;-68
2022/02/22 07:10:59;;;;;;;21.27;6.47;;;;;;;;;;5116006;28;20190;-69
2022/02/22 07:13:26;;;;;;;15.25;5.07;;;;;;;;;;5116262;28;20285;-69
2022/02/22 07:15:55;;;;;;;37.35;8.13;;;;;;;;;;5116546;28;20189;-69
2022/02/22 07:18:22;;;;;;;25.40;5.93;;;;;;;;;;5116892;28;20610;-68
2022/02/22 07:20:49;;;;;;;24.00;6.00;;;;;;;;;;5116504;28;20654;-68
2022/02/22 07:23:17;;;;;;;21.83;5.70;;;;;;;;;;5116055;28;20654;-69
2022/02/22 07:25:44;;;;;;;20.15;5.00;;;;;;;;;;5115956;28;20193;-69
2022/02/22 07:28:11;;;;;;;25.55;6.35;;;;;;;;;;5116452;28;20276;-70
2022/02/22 07:30:39;;;;;;;27.60;5.40;;;;;;;;;;5115913;28;20199;-68
2022/02/22 07:33:10;;;;;;;30.75;6.57;;;;;;;;;;5116207;28;20539;-68
2022/02/22 07:35:37;;;;;;;26.58;5.25;;;;;;;;;;5116794;28;20185;-68
2022/02/22 07:38:04;;;;;;;34.75;7.45;;;;;;;;;;5116119;28;20619;-67
2022/02/22 07:40:32;;;;;;;31.95;8.18;;;;;;;;;;5116006;28;20209;-68
2022/02/22 07:42:59;;;;;;;20.25;5.90;;;;;;;;;;5115716;28;20197;-68
2022/02/22 07:45:27;;;;;;;16.75;4.43;;;;;;;;;;5116049;28;20656;-68
2022/02/22 07:47:54;;;;;;;31.60;6.03;;;;;;;;;;5115684;28;20230;-69
2022/02/22 07:50:23;;;;;;;29.75;6.85;;;;;;;;;;5115958;28;20202;-68
2022/02/22 07:52:50;;;;;;;28.25;6.40;;;;;;;;;;5116017;28;20279;-68
2022/02/22 07:55:17;;;;;;;22.23;5.43;;;;;;;;;;5115587;28;20202;-69
2022/02/22 07:57:45;;;;;;;36.75;7.00;;;;;;;;;;5115764;28;20253;-68
2022/02/22 08:00:13;;;;;;;28.42;6.15;;;;;;;;;;5115313;28;20221;-68
2022/02/22 08:02:40;;;;;;;42.05;6.35;;;;;;;;;;5115333;28;20203;-68
2022/02/22 08:05:08;;;;;;;23.15;5.75;;;;;;;;;;5115338;28;20289;-69
2022/02/22 08:07:37;;;;;;;24.85;5.00;;;;;;;;;;5115540;28;20239;-68
2022/02/22 08:10:04;;;;;;;20.40;5.63;;;;;;;;;;5115540;28;20225;-68
2022/02/22 08:12:31;;;;;;;21.23;6.50;;;;;;;;;;5115580;28;20279;-68
2022/02/22 08:14:58;;;;;;;19.65;3.78;;;;;;;;;;5115062;28;20354;-69
2022/02/22 08:17:26;;;;;;;27.23;5.60;;;;;;;;;;5114997;28;20201;-68
2022/02/22 08:19:53;;;;;;;24.63;6.32;;;;;;;;;;5115315;28;20250;-68
2022/02/22 08:22:20;;;;;;;28.08;7.25;;;;;;;;;;5115193;28;20254;-68
2022/02/22 08:24:49;;;;;;;23.67;5.35;;;;;;;;;;5114853;28;20201;-68
2022/02/22 08:27:19;;;;;;;27.08;5.38;;;;;;;;;;5115403;28;20227;-69
2022/02/22 08:29:46;;;;;;;28.50;6.70;;;;;;;;;;5114768;28;20203;-69
2022/02/22 08:32:13;;;;;;;24.77;6.68;;;;;;;;;;5114826;28;20289;-68
2022/02/22 08:34:40;;;;;;;28.80;8.43;;;;;;;;;;5114841;28;20763;-69
2022/02/22 08:37:08;;;;;;;19.85;6.32;;;;;;;;;;5114904;28;20202;-69
2022/02/22 08:39:36;;;;;;;27.08;4.85;;;;;;;;;;5114876;28;20684;-68
2022/02/22 08:42:09;;;;;;;22.50;5.53;;;;;;;;;;5114955;28;20257;-68
2022/02/22 08:44:36;;;;;;;37.80;7.07;;;;;;;;;;5114575;28;20649;-68
2022/02/22 08:47:04;;;;;;;23.00;5.88;;;;;;;;;;5114998;28;20286;-69
2022/02/22 08:49:31;;;;;;;24.17;5.13;;;;;;;;;;5114793;28;20235;-69
2022/02/22 08:51:58;;;;;;;27.48;5.60;;;;;;;;;;5114840;28;20194;-68
2022/02/22 08:54:25;;;;;;;22.15;5.05;;;;;;;;;;5114769;28;20200;-68
2022/02/22 08:56:53;;;;;;;24.25;5.20;;;;;;;;;;5115132;28;20221;-68
2022/02/22 08:59:21;;;;;;;29.40;5.90;;;;;;;;;;5114455;28;20249;-68
2022/02/22 09:01:49;;;;;;;14.52;5.68;;;;;;;;;;5114757;28;20229;-68
2022/02/22 09:04:16;;;;;;;32.33;6.10;;;;;;;;;;5114183;28;20236;-68
2022/02/22 09:06:43;;;;;;;22.02;6.72;;;;;;;;;;5113851;28;20280;-68
2022/02/22 09:09:10;;;;;;;33.00;6.45;;;;;;;;;;5114352;28;20248;-68
2022/02/22 09:11:37;;;;;;;27.27;6.55;;;;;;;;;;5114382;28;20235;-68
2022/02/22 09:14:05;;;;;;;19.23;4.65;;;;;;;;;;5114005;28;20203;-68
2022/02/22 09:16:33;;;;;;;26.58;6.07;;;;;;;;;;5114014;28;20701;-68
2022/02/22 09:19:01;;;;;;;25.50;6.55;;;;;;;;;;5114260;28;20195;-67
2022/02/22 09:21:28;;;;;;;21.27;5.97;;;;;;;;;;5113892;28;20195;-68
2022/02/22 09:23:55;;;;;;;18.52;5.82;;;;;;;;;;5114361;28;20255;-69
2022/02/22 09:26:22;;;;;;;21.77;7.75;;;;;;;;;;5113796;28;20234;-68
2022/02/22 09:28:51;;;;;;;21.05;6.70;;;;;;;;;;5114000;28;20239;-68
2022/02/22 09:31:19;;;;;;;20.23;5.72;;;;;;;;;;5113767;28;20200;-68
2022/02/22 09:33:48;;;;;;;21.83;5.88;;;;;;;;;;5113777;28;20561;-69
2022/02/22 09:36:15;;;;;;;23.95;5.90;;;;;;;;;;5114583;28;20244;-68
2022/02/22 09:38:42;;;;;;;14.95;4.43;;;;;;;;;;5114494;28;20282;-69
2022/02/22 09:41:09;;;;;;;19.83;5.85;;;;;;;;;;5113921;28;20314;-69
2022/02/22 09:43:37;;;;;;;18.05;5.22;;;;;;;;;;5113622;28;20316;-68
2022/02/22 09:46:11;;;;;;;19.55;4.70;;;;;;;;;;5113962;28;20196;-68
2022/02/22 09:48:38;;;;;;;14.35;6.30;;;;;;;;;;5113945;28;20275;-68
2022/02/22 09:51:07;;;;;;;24.98;5.38;;;;;;;;;;5113897;28;20230;-67
2022/02/22 09:53:34;;;;;;;24.60;4.80;;;;;;;;;;5114334;28;20229;-68
2022/02/22 09:56:01;;;;;;;22.35;5.05;;;;;;;;;;5113823;28;20227;-68
2022/02/22 09:58:29;;;;;;;19.83;5.90;;;;;;;;;;5113948;28;20196;-67
2022/02/22 10:00:59;;;;;;;17.38;4.60;;;;;;;;;;5113416;28;20215;-67
2022/02/22 10:03:27;;;;;;;21.88;4.88;;;;;;;;;;5113762;28;20249;-68
2022/02/22 10:05:55;;;;;;;19.67;4.88;;;;;;;;;;5113995;28;20524;-67
2022/02/22 10:08:27;;;;;;;25.30;4.50;;;;;;;;;;5113707;28;20192;-67
2022/02/22 10:11:01;;;;;;;20.40;5.65;;;;;;;;;;5113769;28;20223;-67
2022/02/22 10:13:29;;;;;;;20.80;5.70;;;;;;;;;;5113875;28;20244;-67
2022/02/22 10:15:58;;;;;;;16.52;5.30;;;;;;;;;;5113320;28;20193;-67
2022/02/22 10:18:25;;;;;;;19.13;5.07;;;;;;;;;;5113631;28;20528;-67
2022/02/22 10:20:52;;;;;;;20.27;5.25;;;;;;;;;;5113521;28;20314;-68
2022/02/22 10:23:29;;;;;;;18.00;4.65;;;;;;;;;;5113315;28;20200;-68
2022/02/22 10:25:56;;;;;;;13.45;5.10;;;;;;;;;;5113241;28;20252;-69
2022/02/22 10:28:24;;;;;;;15.18;5.70;;;;;;;;;;5113550;28;20299;-68
2022/02/22 10:30:53;;;;;;;19.73;5.35;;;;;;;;;;5113493;28;20260;-67
2022/02/22 10:33:22;;;;;;;20.42;5.50;;;;;;;;;;5113824;28;20195;-68
2022/02/22 10:35:51;;;;;;;20.63;6.97;;;;;;;;;;5114196;28;20603;-68
2022/02/22 10:38:20;;;;;;;17.13;6.47;;;;;;;;;;5113865;28;20193;-68
2022/02/22 10:40:57;;;;;;;17.77;5.22;;;;;;;;;;5113334;28;20586;-67
2022/02/22 10:43:25;;;;;;;26.27;7.10;;;;;;;;;;5113748;28;20522;-67
2022/02/22 10:45:53;;;;;;;15.75;6.15;;;;;;;;;;5113111;28;20254;-67
2022/02/22 10:48:30;;;;;;;12.30;5.65;;;;;;;;;;5117068;28;20236;-68
2022/02/22 10:50:58;;;;;;;15.05;6.05;;;;;;;;;;5117249;28;20220;-68
2022/02/22 10:53:29;;;;;;;30.27;7.00;;;;;;;;;;5117037;28;20237;-67
2022/02/22 10:55:58;;;;;;;8.98;4.60;;;;;;;;;;5116977;28;20199;-67
2022/02/22 10:58:26;;;;;;;19.90;5.75;;;;;;;;;;5117263;28;20283;-68
2022/02/22 11:00:53;;;;;;;16.10;5.15;;;;;;;;;;5116709;28;20733;-68
2022/02/22 11:03:21;;;;;;;18.17;5.82;;;;;;;;;;5116823;28;20288;-68
2022/02/22 11:05:49;;;;;;;23.55;6.63;;;;;;;;;;5116751;28;20565;-68
2022/02/22 11:08:16;;;;;;;21.20;4.95;;;;;;;;;;5116596;28;20198;-68
2022/02/22 11:10:50;;;;;;;17.48;5.93;;;;;;;;;;5117197;28;20227;-68
2022/02/22 11:13:26;;;;;;;19.23;7.07;;;;;;;;;;5116254;28;20181;-67
2022/02/22 11:15:53;;;;;;;14.73;4.70;;;;;;;;;;5116910;28;20184;-68
2022/02/22 11:18:21;;;;;;;17.77;5.15;;;;;;;;;;5116182;28;20228;-68
2022/02/22 11:20:49;;;;;;;21.30;6.30;;;;;;;;;;5116837;28;20226;-68
2022/02/22 11:23:24;;;;;;;25.65;6.50;;;;;;;;;;5116091;28;20722;-69
2022/02/22 11:25:52;;;;;;;17.38;5.82;;;;;;;;;;5116344;28;20250;-68
2022/02/22 11:28:21;;;;;;;14.07;5.65;;;;;;;;;;5116647;28;20177;-68
2022/02/22 11:30:49;;;;;;;18.58;5.40;;;;;;;;;;5117005;28;20227;-69
2022/02/22 11:33:18;;;;;;;12.25;5.03;;;;;;;;;;5117455;28;20211;-68
2022/02/22 11:35:49;;;;;;;13.77;5.53;;;;;;;;;;5115862;28;20249;-67
2022/02/22 11:38:17;;;;;;;12.07;5.05;;;;;;;;;;5116320;28;20301;-68
2022/02/22 11:40:48;;;;;;;16.25;5.00;;;;;;;;;;5116202;28;20288;-68
2022/02/22 11:43:17;;;;;;;22.58;4.50;;;;;;;;;;5116898;28;20185;-68
2022/02/22 11:45:47;;;;;;;23.63;5.85;;;;;;;;;;5116004;28;20291;-68
2022/02/22 11:48:15;;;;;;;21.63;5.20;;;;;;;;;;5115689;28;20680;-67
2022/02/22 11:50:44;;;;;;;22.50;6.15;;;;;;;;;;5115679;28;20200;-67
2022/02/22 11:53:12;;;;;;;22.02;6.18;;;;;;;;;;5115852;28;20192;-68
2022/02/22 11:55:40;;;;;;;21.52;6.75;;;;;;;;;;5115633;28;20243;-67
2022/02/22 11:58:12;;;;;;;23.70;5.57;;;;;;;;;;5115646;28;20596;-68
2022/02/22 12:00:40;;;;;;;12.40;5.30;;;;;;;;;;5115342;28;20216;-68
2022/02/22 12:03:10;;;;;;;18.27;6.28;;;;;;;;;;5115665;28;20210;-69
2022/02/22 12:05:44;;;;;;;22.95;6.50;;;;;;;;;;5115617;28;20193;-67
2022/02/22 12:08:20;;;;;;;16.02;6.05;;;;;;;;;;5115820;28;20203;-68
2022/02/22 12:10:54;;;;;;;20.63;6.25;;;;;;;;;;5115616;28;20237;-67
2022/02/22 12:13:22;;;;;;;19.23;6.38;;;;;;;;;;5115509;28;20238;-67
2022/02/22 12:15:51;;;;;;;22.23;6.10;;;;;;;;;;5115057;28;20661;-67
2022/02/22 12:18:21;;;;;;;14.73;6.07;;;;;;;;;;5115028;28;20676;-68
2022/02/22 12:20:49;;;;;;;18.83;6.55;;;;;;;;;;5115304;28;20792;-69
2022/02/22 12:23:17;;;;;;;16.20;6.10;;;;;;;;;;5115000;28;20232;-68
2022/02/22 12:25:44;;;;;;;19.25;7.70;;;;;;;;;;5114958;28;20232;-68
2022/02/22 12:28:12;;;;;;;19.70;6.50;;;;;;;;;;5115871;28;20235;-68
2022/02/22 12:30:40;;;;;;;17.15;5.60;;;;;;;;;;5115184;28;20299;-68
2022/02/22 12:33:07;;;;;;;22.08;7.40;;;;;;;;;;5114815;28;20209;-68
2022/02/22 12:35:37;;;;;;;20.30;7.45;;;;;;;;;;5115640;28;20227;-68
2022/02/22 12:38:12;;;;;;;21.02;7.57;;;;;;;;;;5115010;28;20612;-68
2022/02/22 12:40:40;;;;;;;20.85;6.38;;;;;;;;;;5114955;28;20215;-69
2022/02/22 12:43:08;;;;;;;19.10;7.15;;;;;;;;;;5115557;28;20192;-68
2022/02/22 12:45:36;;;;;;;18.33;6.20;;;;;;;;;;5115320;28;20553;-69
2022/02/22 12:48:05;;;;;;;27.65;8.65;;;;;;;;;;5114470;28;20291;-68
2022/02/22 12:50:32;;;;;;;13.80;7.30;;;;;;;;;;5114424;28;20669;-67
2022/02/22 12:53:01;;;;;;;19.13;7.45;;;;;;;;;;5114652;28;20205;-67
2022/02/22 12:55:28;;;;;;;11.93;5.60;;;;;;;;;;5114717;28;20200;-71
2022/02/22 12:58:05;;;;;;;33.80;9.27;;;;;;;;;;5114684;28;20197;-67
2022/02/22 13:00:33;;;;;;;28.10;6.90;;;;;;;;;;5114625;28;20271;-67
2022/02/22 13:03:11;;;;;;;25.00;7.57;;;;;;;;;;5115333;28;20298;-67
2022/02/22 13:05:40;;;;;;;25.00;8.25;;;;;;;;;;5113783;28;20211;-66
2022/02/22 13:08:09;;;;;;;23.05;6.60;;;;;;;;;;5114164;28;20294;-66
2022/02/22 13:10:49;;;;;;;17.70;6.55;;;;;;;;;;5113515;28;20202;-65
2022/02/22 13:13:24;;;;;;;28.17;7.60;;;;;;;;;;5114488;28;20229;-66
2022/02/22 13:15:51;;;;;;;25.20;7.82;;;;;;;;;;5114642;28;20187;-65
2022/02/22 13:18:19;;;;;;;23.73;6.68;;;;;;;;;;5114354;28;20287;-67
2022/02/22 13:20:48;;;;;;;22.27;6.57;;;;;;;;;;5114254;28;20221;-67
2022/02/22 13:23:17;;;;;;;20.35;6.60;;;;;;;;;;5114331;28;20233;-68
2022/02/22 13:25:45;;;;;;;24.55;7.75;;;;;;;;;;5113880;28;20314;-67
2022/02/22 13:28:13;;;;;;;16.65;7.60;;;;;;;;;;5113942;28;20220;-66
2022/02/22 13:30:41;;;;;;;23.23;5.72;;;;;;;;;;5113860;28;20200;-67
2022/02/22 13:33:10;;;;;;;18.90;6.10;;;;;;;;;;5113873;28;20253;-67
2022/02/22 13:35:37;;;;;;;23.63;7.03;;;;;;;;;;5113689;28;20283;-67
2022/02/22 13:38:27;;;;;;;17.17;5.40;;;;;;;;;;5114142;28;20198;-67
2022/02/22 13:40:56;;;;;;;14.50;6.32;;;;;;;;;;5113796;28;20673;-68
2022/02/22 13:43:33;;;;;;;15.90;5.95;;;;;;;;;;5113834;28;20199;-67
2022/02/22 13:46:02;;;;;;;27.88;7.60;;;;;;;;;;5114481;28;20271;-67
2022/02/22 13:48:31;;;;;;;21.35;6.07;;;;;;;;;;5113638;28;20231;-67
2022/02/22 13:51:04;;;;;;;23.08;6.20;;;;;;;;;;5113946;28;20236;-67
2022/02/22 13:53:31;;;;;;;19.25;6.35;;;;;;;;;;5114832;28;20287;-66
2022/02/22 13:56:02;;;;;;;24.90;6.53;;;;;;;;;;5113764;28;20238;-67
2022/02/22 13:58:30;;;;;;;21.52;8.35;;;;;;;;;;5113888;28;20188;-67
2022/02/22 14:00:59;;;;;;;21.38;6.85;;;;;;;;;;5113465;28;20220;-66
2022/02/22 14:03:26;;;;;;;20.75;7.90;;;;;;;;;;5113451;28;20195;-66
2022/02/22 14:05:53;;;;;;;27.73;8.07;;;;;;;;;;5113698;28;20193;-67
2022/02/22 14:08:21;;;;;;;16.95;6.78;;;;;;;;;;5113892;28;20291;-67
2022/02/22 14:10:49;;;;;;;17.95;8.50;;;;;;;;;;5113376;28;20200;-67
2022/02/22 14:13:18;;;;;;;20.10;6.93;;;;;;;;;;5113789;28;20288;-67
2022/02/22 14:15:46;;;;;;;16.63;7.38;;;;;;;;;;5113919;28;20283;-68
2022/02/22 14:18:14;;;;;;;18.27;9.00;;;;;;;;;;5113857;28;20257;-68
2022/02/22 14:20:41;;;;;;;17.95;8.32;;;;;;;;;;5115396;28;20193;-68
2022/02/22 14:23:09;;;;;;;15.63;8.23;;;;;;;;;;5117711;28;20296;-67
2022/02/22 14:25:37;;;;;;;26.45;8.88;;;;;;;;;;5117300;28;20275;-70
2022/02/22 14:28:06;;;;;;;25.15;9.32;;;;;;;;;;5117223;28;20246;-70
2022/02/22 14:30:34;;;;;;;15.20;9.60;;;;;;;;;;5117107;28;20228;-70
2022/02/22 14:33:03;;;;;;;22.50;8.80;;;;;;;;;;5117484;28;20628;-70
2022/02/22 14:35:30;;;;;;;19.85;8.57;;;;;;;;;;5116908;28;20657;-70